createdAt,value
2018-12-04T00:00:09.556Z,3.90
2018-12-04T00:02:38.055Z,6.17
2018-12-04T00:07:40.494Z,5.67
2018-12-04T00:10:08.906Z,5.10
2018-12-04T00:12:36.743Z,3.80
2018-12-04T00:15:05.020Z,4.80
2018-12-04T00:17:32.961Z,6.70
2018-12-04T00:20:00.791Z,3.37
2018-12-04T00:22:28.693Z,6.77
2018-12-04T00:24:56.608Z,3.50
2018-12-04T00:27:24.472Z,4.53
2018-12-04T00:29:52.497Z,3.40
2018-12-04T00:32:20.564Z,4.37
2018-12-04T00:34:48.388Z,4.03
2018-12-04T00:37:16.300Z,3.83
2018-12-04T00:39:44.166Z,4.90
2018-12-04T00:42:12.054Z,4.10
2018-12-04T00:44:40.191Z,4.03
2018-12-04T00:47:08.024Z,3.00
2018-12-04T00:49:36.029Z,8.13
2018-12-04T00:52:03.928Z,3.33
2018-12-04T00:54:31.787Z,13.00
2018-12-04T00:56:59.641Z,6.10
2018-12-04T00:59:27.500Z,5.23
2018-12-04T01:01:55.354Z,4.13
2018-12-04T01:04:23.245Z,3.27
2018-12-04T01:06:51.093Z,6.90
2018-12-04T01:09:18.957Z,3.57
2018-12-04T01:11:46.801Z,5.03
2018-12-04T01:14:14.655Z,4.43
2018-12-04T01:16:42.505Z,5.63
2018-12-04T01:19:10.343Z,2.77
2018-12-04T01:21:38.194Z,5.33
2018-12-04T01:24:06.047Z,6.03
2018-12-04T01:26:33.923Z,4.47
2018-12-04T01:29:01.761Z,3.70
2018-12-04T01:31:29.602Z,4.40
2018-12-04T01:33:57.438Z,4.13
2018-12-04T01:36:25.450Z,2.83
2018-12-04T01:38:53.285Z,3.77
2018-12-04T01:41:21.113Z,4.67
2018-12-04T01:43:48.949Z,7.13
2018-12-04T01:46:16.845Z,5.33
2018-12-04T01:48:44.684Z,5.97
2018-12-04T01:51:12.537Z,6.73
2018-12-04T01:53:40.378Z,4.90
2018-12-04T01:56:08.202Z,7.10
2018-12-04T01:58:36.063Z,4.70
2018-12-04T02:01:03.900Z,5.03
2018-12-04T02:03:31.805Z,9.93
2018-12-04T02:05:59.653Z,4.63
2018-12-04T02:08:27.682Z,2.97
2018-12-04T02:10:55.519Z,6.10
2018-12-04T02:13:23.515Z,5.63
2018-12-04T02:15:51.392Z,5.73
2018-12-04T02:18:19.271Z,6.17
2018-12-04T02:20:47.093Z,3.33
2018-12-04T02:23:14.921Z,4.30
2018-12-04T02:25:42.977Z,2.97
2018-12-04T02:28:10.854Z,3.57
2018-12-04T02:30:38.668Z,4.53
2018-12-04T02:33:06.537Z,4.53
2018-12-04T02:35:34.348Z,5.47
2018-12-04T02:38:02.188Z,5.03
2018-12-04T02:40:30.131Z,5.43
2018-12-04T02:42:58.002Z,6.90
2018-12-04T02:45:25.839Z,4.00
2018-12-04T02:47:53.671Z,3.70
2018-12-04T02:50:21.515Z,4.70
2018-12-04T02:52:49.354Z,7.33
2018-12-04T02:55:17.205Z,5.07
2018-12-04T02:57:45.036Z,7.17
2018-12-04T03:00:12.985Z,6.00
2018-12-04T03:02:40.833Z,4.50
2018-12-04T03:05:08.826Z,5.17
2018-12-04T03:07:36.685Z,5.10
2018-12-04T03:10:05.346Z,5.77
2018-12-04T03:12:33.221Z,4.63
2018-12-04T03:15:01.128Z,6.37
2018-12-04T03:17:29.049Z,7.97
2018-12-04T03:19:56.917Z,4.10
2018-12-04T03:22:24.741Z,3.77
2018-12-04T03:24:52.582Z,3.40
2018-12-04T03:27:20.432Z,7.17
2018-12-04T03:29:48.280Z,4.70
2018-12-04T03:32:16.509Z,4.53
2018-12-04T03:34:44.354Z,7.50
2018-12-04T03:37:12.240Z,5.07
2018-12-04T03:39:40.095Z,5.43
2018-12-04T03:42:07.939Z,8.80
2018-12-04T03:44:35.915Z,7.60
2018-12-04T03:47:03.984Z,6.83
2018-12-04T03:49:31.886Z,4.73
2018-12-04T03:51:59.740Z,7.03
2018-12-04T03:54:27.568Z,6.63
2018-12-04T03:56:55.409Z,6.63
2018-12-04T03:59:23.247Z,7.83
2018-12-04T04:01:51.086Z,7.07
2018-12-04T04:04:18.990Z,6.07
2018-12-04T04:06:46.882Z,9.37
2018-12-04T04:09:14.731Z,7.43
2018-12-04T04:11:42.573Z,5.77
2018-12-04T04:14:10.400Z,6.67
2018-12-04T04:16:38.301Z,5.00
2018-12-04T04:19:06.114Z,4.80
2018-12-04T04:21:34.037Z,4.83
2018-12-04T04:24:01.926Z,6.83
2018-12-04T04:26:29.768Z,8.40
2018-12-04T04:28:57.717Z,5.93
2018-12-04T04:31:25.642Z,9.50
2018-12-04T04:33:53.481Z,5.17
2018-12-04T04:36:21.326Z,7.53
2018-12-04T04:38:49.174Z,5.67
2018-12-04T04:41:17.017Z,8.67
2018-12-04T04:43:44.874Z,8.07
2018-12-04T04:46:12.750Z,5.87
2018-12-04T04:48:40.735Z,7.77
2018-12-04T04:51:08.616Z,4.77
2018-12-04T04:53:36.436Z,5.17
2018-12-04T04:56:04.366Z,3.87
2018-12-04T04:58:32.184Z,5.93
2018-12-04T05:01:00.135Z,4.33
2018-12-04T05:03:27.975Z,5.93
2018-12-04T05:05:55.834Z,9.23
2018-12-04T05:08:23.675Z,6.20
2018-12-04T05:10:51.522Z,4.33
2018-12-04T05:13:19.360Z,4.63
2018-12-04T05:15:47.202Z,7.13
2018-12-04T05:18:15.080Z,3.50
2018-12-04T05:20:43.116Z,7.77
2018-12-04T05:23:10.949Z,8.17
2018-12-04T05:25:38.826Z,13.87
2018-12-04T05:28:06.718Z,5.13
2018-12-04T05:30:34.585Z,5.13
2018-12-04T05:33:02.514Z,5.67
2018-12-04T05:35:30.361Z,7.50
2018-12-04T05:37:58.195Z,4.50
2018-12-04T05:40:26.036Z,4.97
2018-12-04T05:42:53.882Z,5.67
2018-12-04T05:45:21.722Z,7.67
2018-12-04T05:47:49.589Z,6.90
2018-12-04T05:50:17.430Z,10.70
2018-12-04T05:52:48.647Z,5.13
2018-12-04T05:55:16.484Z,7.20
2018-12-04T05:57:44.317Z,7.43
2018-12-04T06:00:12.278Z,6.53
2018-12-04T06:02:40.270Z,4.73
2018-12-04T06:05:08.159Z,8.83
2018-12-04T06:07:36.001Z,8.63
2018-12-04T06:10:03.882Z,12.70
2018-12-04T06:12:31.717Z,6.27
2018-12-04T06:14:59.534Z,7.00
2018-12-04T06:17:27.357Z,11.10
2018-12-04T06:19:55.233Z,7.63
2018-12-04T06:22:23.065Z,8.23
2018-12-04T06:24:50.988Z,5.67
2018-12-04T06:27:18.922Z,6.70
2018-12-04T06:29:46.799Z,8.37
2018-12-04T06:32:14.717Z,8.00
2018-12-04T06:34:42.572Z,9.37
2018-12-04T06:37:10.457Z,13.47
2018-12-04T06:39:38.309Z,13.03
2018-12-04T06:42:06.150Z,19.50
2018-12-04T06:44:33.970Z,17.47
2018-12-04T06:47:01.810Z,11.17
2018-12-04T06:49:29.629Z,10.43
2018-12-04T06:51:57.469Z,11.60
2018-12-04T06:54:25.297Z,8.50
2018-12-04T06:56:53.181Z,12.13
2018-12-04T06:59:21.238Z,9.60
2018-12-04T07:01:49.082Z,10.30
2018-12-04T07:04:16.951Z,11.77
2018-12-04T07:06:45.448Z,8.60
2018-12-04T07:09:13.382Z,9.83
2018-12-04T07:11:41.216Z,9.87
2018-12-04T07:14:09.198Z,8.60
2018-12-04T07:16:37.038Z,8.93
2018-12-04T07:19:04.885Z,12.37
2018-12-04T07:21:32.738Z,12.57
2018-12-04T07:24:00.573Z,10.20
2018-12-04T07:26:28.407Z,11.47
2018-12-04T07:28:56.326Z,12.27
2018-12-04T07:31:24.175Z,9.17
2018-12-04T07:33:52.145Z,17.43
2018-12-04T07:36:19.993Z,11.23
2018-12-04T07:38:47.884Z,6.90
2018-12-04T07:41:15.746Z,13.87
2018-12-04T07:43:43.693Z,12.97
2018-12-04T07:46:11.704Z,9.10
2018-12-04T07:48:46.159Z,10.83
2018-12-04T07:51:14.014Z,8.07
2018-12-04T07:53:41.853Z,7.13
2018-12-04T07:56:09.756Z,13.03
2018-12-04T07:58:37.620Z,15.83
2018-12-04T08:01:05.501Z,13.00
2018-12-04T08:03:33.353Z,16.57
2018-12-04T08:06:05.367Z,13.97
2018-12-04T08:08:33.192Z,20.60
2018-12-04T08:11:01.057Z,16.07
2018-12-04T08:13:28.966Z,10.97
2018-12-04T08:15:56.817Z,14.33
2018-12-04T08:18:24.695Z,11.63
2018-12-04T08:20:52.536Z,13.77
2018-12-04T08:23:20.416Z,10.13
2018-12-04T08:25:48.277Z,8.03
2018-12-04T08:28:16.145Z,13.70
2018-12-04T08:30:43.994Z,8.17
2018-12-04T08:33:12.149Z,10.80
2018-12-04T08:35:40.056Z,10.90
2018-12-04T08:38:07.989Z,12.83
2018-12-04T08:40:35.825Z,14.13
2018-12-04T08:43:03.681Z,11.80
2018-12-04T08:45:31.511Z,15.07
2018-12-04T08:47:59.445Z,12.37
2018-12-04T08:50:27.291Z,11.67
2018-12-04T08:52:55.134Z,11.20
2018-12-04T08:55:22.961Z,20.50
2018-12-04T08:57:50.824Z,15.27
2018-12-04T09:00:18.671Z,11.13
2018-12-04T09:02:46.557Z,14.17
2018-12-04T09:05:14.536Z,16.17
2018-12-04T09:07:42.528Z,15.93
2018-12-04T09:10:10.386Z,14.60
2018-12-04T09:12:38.214Z,14.63
2018-12-04T09:15:06.777Z,12.53
2018-12-04T09:17:34.613Z,11.97
2018-12-04T09:20:02.536Z,14.70
2018-12-04T09:22:30.481Z,17.23
2018-12-04T09:24:58.365Z,19.53
2018-12-04T09:27:26.232Z,14.07
2018-12-04T09:29:54.202Z,14.67
2018-12-04T09:32:22.176Z,11.00
2018-12-04T09:34:50.039Z,14.67
2018-12-04T09:37:18.056Z,15.53
2018-12-04T09:39:45.911Z,17.03
2018-12-04T09:42:13.811Z,16.30
2018-12-04T09:44:41.706Z,17.03
2018-12-04T09:47:09.560Z,17.90
2018-12-04T09:49:37.432Z,16.73
2018-12-04T09:52:05.293Z,13.77
2018-12-04T09:54:33.163Z,13.50
2018-12-04T09:57:01.134Z,17.60
2018-12-04T09:59:29.004Z,16.43
2018-12-04T10:01:56.876Z,13.93
2018-12-04T10:04:24.913Z,20.43
2018-12-04T10:06:52.781Z,11.33
2018-12-04T10:09:20.714Z,17.57
2018-12-04T10:11:48.573Z,15.60
2018-12-04T10:14:16.393Z,22.73
2018-12-04T10:16:44.238Z,12.90
2018-12-04T10:19:12.177Z,17.93
2018-12-04T10:21:40.073Z,15.03
2018-12-04T10:24:07.933Z,15.03
2018-12-04T10:26:35.784Z,16.53
2018-12-04T10:29:03.658Z,14.53
2018-12-04T10:31:31.477Z,18.40
2018-12-04T10:33:59.320Z,22.13
2018-12-04T10:36:27.171Z,19.73
2018-12-04T10:38:55.166Z,14.53
2018-12-04T10:41:23.060Z,18.70
2018-12-04T10:43:51.020Z,12.83
2018-12-04T10:46:18.841Z,15.63
2018-12-04T10:48:46.656Z,12.13
2018-12-04T10:51:14.501Z,18.57
2018-12-04T10:53:42.469Z,13.70
2018-12-04T10:56:10.334Z,16.00
2018-12-04T10:58:38.161Z,12.07
2018-12-04T11:01:11.416Z,10.47
2018-12-04T11:03:39.469Z,13.20
2018-12-04T11:06:07.598Z,10.47
2018-12-04T11:08:35.464Z,12.93
2018-12-04T11:11:03.422Z,11.50
2018-12-04T11:13:31.304Z,14.27
2018-12-04T11:15:59.465Z,21.27
2018-12-04T11:18:27.322Z,14.43
2018-12-04T11:20:55.180Z,12.80
2018-12-04T11:23:23.044Z,11.10
2018-12-04T11:25:50.923Z,14.27
2018-12-04T11:28:18.792Z,10.53
2018-12-04T11:30:46.652Z,16.70
2018-12-04T11:33:14.490Z,12.47
2018-12-04T11:35:42.898Z,10.03
2018-12-04T11:38:11.565Z,7.97
2018-12-04T11:40:39.629Z,10.43
2018-12-04T11:43:07.459Z,7.43
2018-12-04T11:45:35.327Z,9.30
2018-12-04T11:48:03.330Z,12.40
2018-12-04T11:50:31.181Z,16.77
2018-12-04T11:52:59.041Z,9.87
2018-12-04T11:55:33.311Z,6.90
2018-12-04T11:58:01.359Z,9.30
2018-12-04T12:00:35.853Z,9.40
2018-12-04T12:03:03.763Z,6.83
2018-12-04T12:05:31.681Z,12.47
2018-12-04T12:07:59.577Z,11.90
2018-12-04T12:10:27.705Z,9.83
2018-12-04T12:12:55.629Z,13.67
2018-12-04T12:15:23.481Z,11.43
2018-12-04T12:17:51.380Z,11.53
2018-12-04T12:20:19.246Z,7.47
2018-12-04T12:22:47.086Z,10.30
2018-12-04T12:25:14.972Z,11.43
2018-12-04T12:27:43.497Z,7.97
2018-12-04T12:30:11.450Z,12.70
2018-12-04T12:32:39.316Z,16.60
2018-12-04T12:35:07.737Z,14.43
2018-12-04T12:37:35.649Z,11.20
2018-12-04T12:40:03.641Z,18.20
2018-12-04T12:42:31.530Z,19.17
2018-12-04T12:44:59.533Z,15.27
2018-12-04T12:47:27.391Z,10.67
2018-12-04T12:49:55.331Z,8.23
2018-12-04T12:52:23.201Z,8.23
2018-12-04T12:54:51.102Z,9.43
2018-12-04T12:57:19.197Z,10.40
2018-12-04T12:59:47.092Z,7.30
2018-12-04T13:02:15.042Z,4.77
2018-12-04T13:04:42.976Z,7.27
2018-12-04T13:07:10.865Z,11.53
2018-12-04T13:09:38.701Z,9.97
2018-12-04T13:12:06.545Z,13.60
2018-12-04T13:14:34.391Z,12.17
2018-12-04T13:17:02.333Z,10.20
2018-12-04T13:19:30.273Z,12.30
2018-12-04T13:21:58.205Z,7.77
2018-12-04T13:24:26.067Z,11.63
2018-12-04T13:26:54.154Z,11.33
2018-12-04T13:29:21.986Z,7.70
2018-12-04T13:31:49.858Z,7.43
2018-12-04T13:34:17.764Z,11.63
2018-12-04T13:36:45.620Z,12.33
2018-12-04T13:39:13.531Z,10.13
2018-12-04T13:41:41.430Z,8.57
2018-12-04T13:44:09.290Z,20.07
2018-12-04T13:46:37.353Z,18.13
2018-12-04T13:49:05.213Z,15.73
2018-12-04T13:51:33.104Z,7.07
2018-12-04T13:54:01.020Z,10.13
2018-12-04T13:56:28.978Z,16.67
2018-12-04T13:58:57.774Z,13.80
2018-12-04T14:01:25.620Z,22.37
2018-12-04T14:03:53.469Z,17.80
2018-12-04T14:06:21.349Z,12.47
2018-12-04T14:08:49.266Z,7.20
2018-12-04T14:11:17.179Z,10.67
2018-12-04T14:13:45.030Z,7.67
2018-12-04T14:16:12.893Z,4.50
2018-12-04T14:18:40.792Z,8.33
2018-12-04T14:21:08.649Z,7.27
2018-12-04T14:23:36.565Z,11.10
2018-12-04T14:26:04.487Z,9.53
2018-12-04T14:28:32.445Z,9.20
2018-12-04T14:31:00.306Z,12.27
2018-12-04T14:33:28.343Z,5.40
2018-12-04T14:35:56.225Z,5.30
2018-12-04T14:38:24.690Z,6.33
2018-12-04T14:40:52.866Z,8.73
2018-12-04T14:43:20.699Z,8.00
2018-12-04T14:45:48.599Z,12.17
2018-12-04T14:48:16.501Z,12.87
2018-12-04T14:50:44.460Z,12.03
2018-12-04T14:53:12.409Z,15.27
2018-12-04T14:55:40.264Z,10.20
2018-12-04T14:58:08.197Z,6.83
2018-12-04T15:00:36.056Z,8.30
2018-12-04T15:03:03.951Z,9.37
2018-12-04T15:05:31.833Z,11.93
2018-12-04T15:07:59.735Z,9.10
2018-12-04T15:10:27.614Z,8.43
2018-12-04T15:12:55.671Z,10.63
2018-12-04T15:15:24.810Z,14.07
2018-12-04T15:17:52.963Z,6.93
2018-12-04T15:20:20.864Z,14.60
2018-12-04T15:22:48.866Z,6.70
2018-12-04T15:25:16.747Z,11.30
2018-12-04T15:27:44.652Z,13.57
2018-12-04T15:30:12.828Z,9.47
2018-12-04T15:32:40.699Z,15.67
2018-12-04T15:35:09.192Z,15.53
2018-12-04T15:37:37.131Z,10.87
2018-12-04T15:40:05.598Z,10.97
2018-12-04T15:42:33.508Z,10.63
2018-12-04T15:45:01.489Z,15.87
2018-12-04T15:47:29.551Z,12.03
2018-12-04T15:49:57.812Z,13.13
2018-12-04T15:52:26.046Z,7.87
2018-12-04T15:54:54.477Z,6.03
2018-12-04T15:57:22.481Z,11.00
2018-12-04T15:59:50.824Z,9.37
2018-12-04T16:02:19.079Z,5.47
2018-12-04T16:04:47.426Z,12.03
2018-12-04T16:07:16.104Z,10.43
2018-12-04T16:09:44.539Z,13.03
2018-12-04T16:12:13.141Z,15.07
2018-12-04T16:14:40.994Z,9.50
2018-12-04T16:17:15.076Z,16.83
2018-12-04T16:19:40.360Z,12.20
2018-12-04T16:22:08.332Z,10.53
2018-12-04T16:24:36.311Z,10.87
2018-12-04T16:27:04.355Z,17.80
2018-12-04T16:29:32.798Z,12.40
2018-12-04T16:32:00.866Z,12.40
2018-12-04T16:34:28.888Z,9.67
2018-12-04T16:36:57.584Z,12.03
2018-12-04T16:39:25.482Z,16.30
2018-12-04T16:41:53.651Z,11.50
2018-12-04T16:44:21.915Z,11.60
2018-12-04T16:46:49.801Z,13.37
2018-12-04T16:49:17.794Z,13.63
2018-12-04T16:51:45.741Z,9.70
2018-12-04T16:54:14.101Z,10.60
2018-12-04T16:56:41.973Z,13.93
2018-12-04T16:59:09.820Z,13.03
2018-12-04T17:01:37.651Z,15.53
2018-12-04T17:04:05.493Z,13.63
2018-12-04T17:06:33.597Z,10.33
2018-12-04T17:09:01.419Z,12.50
2018-12-04T17:11:29.406Z,11.73
2018-12-04T17:13:57.290Z,14.57
2018-12-04T17:16:25.182Z,19.97
2018-12-04T17:18:53.196Z,14.77
2018-12-04T17:21:21.359Z,15.47
2018-12-04T17:23:49.229Z,14.60
2018-12-04T17:26:17.578Z,11.13
2018-12-04T17:28:45.539Z,10.83
2018-12-04T17:31:13.942Z,14.37
2018-12-04T17:33:41.996Z,10.87
2018-12-04T17:36:09.896Z,10.10
2018-12-04T17:38:37.777Z,9.53
2018-12-04T17:41:05.674Z,13.87
2018-12-04T17:43:33.554Z,15.40
2018-12-04T17:46:01.561Z,11.50
2018-12-04T17:48:29.494Z,14.60
2018-12-04T17:50:57.403Z,13.93
2018-12-04T17:53:25.310Z,10.13
2018-12-04T17:55:53.220Z,11.97
2018-12-04T17:58:21.121Z,11.07
2018-12-04T18:00:49.007Z,12.03
2018-12-04T18:03:16.882Z,15.77
2018-12-04T18:05:45.050Z,13.47
2018-12-04T18:08:13.067Z,16.77
2018-12-04T18:10:40.961Z,10.10
2018-12-04T18:13:08.890Z,9.87
2018-12-04T18:15:36.775Z,15.67
2018-12-04T18:18:05.242Z,12.80
2018-12-04T18:20:33.358Z,17.87
2018-12-04T18:23:01.571Z,14.50
2018-12-04T18:25:29.427Z,12.10
2018-12-04T18:27:57.362Z,18.93
2018-12-04T18:30:25.418Z,10.43
2018-12-04T18:32:53.271Z,16.73
2018-12-04T18:35:21.640Z,11.83
2018-12-04T18:37:49.585Z,11.43
2018-12-04T18:40:18.142Z,10.50
2018-12-04T18:42:46.354Z,16.20
2018-12-04T18:45:14.424Z,8.53
2018-12-04T18:47:42.343Z,16.17
2018-12-04T18:50:10.777Z,12.63
2018-12-04T18:52:40.719Z,12.70
2018-12-04T18:55:08.708Z,12.87
2018-12-04T18:57:37.525Z,16.53
2018-12-04T19:00:06.289Z,14.47
2018-12-04T19:02:34.779Z,15.17
2018-12-04T19:05:02.659Z,11.43
2018-12-04T19:07:30.510Z,10.63
2018-12-04T19:09:58.807Z,13.80
2018-12-04T19:12:26.812Z,12.53
2018-12-04T19:14:54.728Z,8.77
2018-12-04T19:17:22.652Z,14.80
2018-12-04T19:19:50.610Z,13.90
2018-12-04T19:22:19.094Z,15.67
2018-12-04T19:24:47.051Z,14.97
2018-12-04T19:27:14.924Z,10.40
2018-12-04T19:29:42.832Z,22.87
2018-12-04T19:32:10.885Z,12.37
2018-12-04T19:34:38.961Z,13.00
2018-12-04T19:37:06.971Z,20.13
2018-12-04T19:39:34.842Z,14.73
2018-12-04T19:42:02.883Z,16.80
2018-12-04T19:44:31.393Z,11.33
2018-12-04T19:46:59.331Z,10.47
2018-12-04T19:49:28.223Z,18.80
2018-12-04T19:51:56.201Z,13.43
2018-12-04T19:54:24.136Z,11.50
2018-12-04T19:56:52.098Z,16.87
2018-12-04T19:59:20.299Z,16.37
2018-12-04T20:01:48.381Z,13.33
2018-12-04T20:04:16.404Z,18.67
2018-12-04T20:06:44.677Z,16.23
2018-12-04T20:09:13.676Z,17.73
2018-12-04T20:11:48.375Z,10.67
2018-12-04T20:14:16.592Z,17.90
2018-12-04T20:16:44.867Z,14.70
2018-12-04T20:19:12.975Z,13.77
2018-12-04T20:21:41.050Z,18.53
2018-12-04T20:24:09.199Z,13.73
2018-12-04T20:26:38.076Z,10.80
2018-12-04T20:29:06.128Z,12.73
2018-12-04T20:31:34.192Z,10.97
2018-12-04T20:34:02.286Z,15.07
2018-12-04T20:36:30.312Z,15.13
2018-12-04T20:38:58.663Z,13.73
2018-12-04T20:41:26.763Z,12.87
2018-12-04T20:43:54.921Z,12.60
2018-12-04T20:46:22.989Z,15.00
2018-12-04T20:48:51.058Z,18.07
2018-12-04T20:51:19.485Z,17.70
2018-12-04T20:53:47.536Z,19.70
2018-12-04T20:56:15.561Z,12.90
2018-12-04T20:58:43.650Z,10.83
2018-12-04T21:01:11.853Z,15.83
2018-12-04T21:03:39.914Z,12.27
2018-12-04T21:06:07.803Z,16.80
2018-12-04T21:08:36.289Z,15.17
2018-12-04T21:11:04.462Z,12.07
2018-12-04T21:13:32.340Z,18.13
2018-12-04T21:16:00.265Z,16.17
2018-12-04T21:18:28.215Z,15.47
2018-12-04T21:20:56.512Z,18.70
2018-12-04T21:23:24.451Z,17.03
2018-12-04T21:25:52.578Z,17.70
2018-12-04T21:28:24.314Z,14.60
2018-12-04T21:30:57.660Z,20.80
2018-12-04T21:33:30.612Z,20.13
2018-12-04T21:36:03.675Z,26.90
2018-12-04T21:38:36.656Z,34.43
2018-12-04T21:41:09.316Z,42.70
2018-12-04T21:43:42.374Z,29.60
2018-12-04T21:46:15.451Z,27.90
2018-12-04T21:48:43.401Z,32.43
2018-12-04T21:51:11.281Z,33.23
2018-12-04T21:53:39.220Z,22.83
2018-12-04T21:56:07.081Z,22.53
2018-12-04T21:58:34.958Z,13.70
2018-12-04T22:01:02.806Z,16.47
2018-12-04T22:03:30.697Z,18.83
2018-12-04T22:05:58.552Z,15.73
2018-12-04T22:08:26.419Z,30.13
2018-12-04T22:10:54.365Z,33.27
2018-12-04T22:13:22.314Z,28.03
2018-12-04T22:15:50.209Z,23.77
2018-12-04T22:18:18.080Z,16.13
2018-12-04T22:20:45.958Z,20.97
2018-12-04T22:23:13.926Z,19.40
2018-12-04T22:25:41.953Z,19.13
2018-12-04T22:28:09.822Z,19.17
2018-12-04T22:30:37.662Z,19.50
2018-12-04T22:33:05.483Z,18.40
2018-12-04T22:35:33.343Z,14.97
2018-12-04T22:38:01.203Z,24.73
2018-12-04T22:40:29.057Z,19.80
2018-12-04T22:42:56.930Z,19.80
2018-12-04T22:45:26.033Z,22.70
2018-12-04T22:47:54.510Z,17.90
2018-12-04T22:50:22.389Z,22.27
2018-12-04T22:52:50.240Z,18.20
2018-12-04T22:55:18.122Z,21.27
2018-12-04T22:57:46.046Z,22.13
2018-12-04T23:00:18.351Z,21.20
2018-12-04T23:02:46.206Z,19.27
2018-12-04T23:05:14.120Z,16.10
2018-12-04T23:07:42.101Z,16.73
2018-12-04T23:10:10.001Z,21.87
2018-12-04T23:12:37.981Z,23.90
2018-12-04T23:15:06.247Z,19.27
2018-12-04T23:17:34.074Z,22.60
2018-12-04T23:20:02.010Z,22.33
2018-12-04T23:22:29.875Z,20.70
2018-12-04T23:24:57.807Z,20.20
2018-12-04T23:27:25.727Z,19.03
2018-12-04T23:29:53.874Z,18.87
2018-12-04T23:32:21.709Z,18.73
2018-12-04T23:34:49.746Z,19.60
2018-12-04T23:37:17.611Z,17.20
2018-12-04T23:39:45.435Z,14.43
2018-12-04T23:42:13.379Z,18.83
2018-12-04T23:44:41.296Z,15.77
2018-12-04T23:47:09.198Z,16.67
2018-12-04T23:49:37.055Z,17.20
2018-12-04T23:52:04.939Z,17.80
2018-12-04T23:54:32.815Z,20.97
2018-12-04T23:57:00.743Z,14.60
2018-12-04T23:59:28.589Z,15.00
